sensor_id;sensor_type;location;lat;lon;timestamp;P1;durP1;ratioP1;P2;durP2;ratioP2
33786;SDS011;29742;51.540;9.358;2022-09-03T00:01:05;1.83;;;0.57;;
33786;SDS011;29742;51.540;9.358;2022-09-03T00:06:10;2.80;;;0.65;;
33786;SDS011;29742;51.540;9.358;2022-09-03T00:16:21;0.80;;;0.47;;
33786;SDS011;29742;51.540;9.358;2022-09-03T00:21:35;3.17;;;0.50;;
33786;SDS011;29742;51.540;9.358;2022-09-03T00:26:37;4.90;;;0.80;;
33786;SDS011;29742;51.540;9.358;2022-09-03T00:31:44;0.52;;;0.32;;
33786;SDS011;29742;51.540;9.358;2022-09-03T00:36:46;1.48;;;0.70;;
33786;SDS011;29742;51.540;9.358;2022-09-03T00:47:11;2.47;;;0.50;;
33786;SDS011;29742;51.540;9.358;2022-09-03T01:03:25;1.15;;;0.30;;
33786;SDS011;29742;51.540;9.358;2022-09-03T01:13:35;0.93;;;0.40;;
33786;SDS011;29742;51.540;9.358;2022-09-03T01:49:53;0.65;;;0.40;;
33786;SDS011;29742;51.540;9.358;2022-09-03T02:05:06;1.30;;;0.40;;
33786;SDS011;29742;51.540;9.358;2022-09-03T02:10:13;1.80;;;0.47;;
33786;SDS011;29742;51.540;9.358;2022-09-03T02:15:15;0.40;;;0.30;;
33786;SDS011;29742;51.540;9.358;2022-09-03T02:20:19;0.60;;;0.50;;
33786;SDS011;29742;51.540;9.358;2022-09-03T02:25:21;0.95;;;0.57;;
33786;SDS011;29742;51.540;9.358;2022-09-03T02:30:23;0.40;;;0.20;;
33786;SDS011;29742;51.540;9.358;2022-09-03T02:35:24;0.70;;;0.30;;
33786;SDS011;29742;51.540;9.358;2022-09-03T02:40:25;0.68;;;0.40;;
33786;SDS011;29742;51.540;9.358;2022-09-03T02:45:26;1.35;;;0.50;;
33786;SDS011;29742;51.540;9.358;2022-09-03T02:50:28;1.83;;;0.50;;
33786;SDS011;29742;51.540;9.358;2022-09-03T02:55:29;1.48;;;0.90;;
33786;SDS011;29742;51.540;9.358;2022-09-03T03:00:30;0.43;;;0.40;;
33786;SDS011;29742;51.540;9.358;2022-09-03T03:05:50;0.55;;;0.50;;
33786;SDS011;29742;51.540;9.358;2022-09-03T03:10:53;1.15;;;0.40;;
33786;SDS011;29742;51.540;9.358;2022-09-03T03:15:59;0.37;;;0.30;;
33786;SDS011;29742;51.540;9.358;2022-09-03T03:21:04;1.35;;;0.45;;
33786;SDS011;29742;51.540;9.358;2022-09-03T03:26:07;0.22;;;0.20;;
33786;SDS011;29742;51.540;9.358;2022-09-03T03:31:09;0.20;;;0.20;;
33786;SDS011;29742;51.540;9.358;2022-09-03T03:36:11;1.23;;;0.50;;
33786;SDS011;29742;51.540;9.358;2022-09-03T03:41:17;1.30;;;0.20;;
33786;SDS011;29742;51.540;9.358;2022-09-03T03:46:18;0.28;;;0.28;;
33786;SDS011;29742;51.540;9.358;2022-09-03T03:51:19;1.08;;;0.55;;
33786;SDS011;29742;51.540;9.358;2022-09-03T03:56:20;0.45;;;0.30;;
33786;SDS011;29742;51.540;9.358;2022-09-03T04:01:22;0.82;;;0.30;;
33786;SDS011;29742;51.540;9.358;2022-09-03T04:06:24;0.82;;;0.40;;
33786;SDS011;29742;51.540;9.358;2022-09-03T04:11:25;0.43;;;0.20;;
33786;SDS011;29742;51.540;9.358;2022-09-03T04:16:26;0.68;;;0.25;;
33786;SDS011;29742;51.540;9.358;2022-09-03T04:21:28;1.88;;;0.50;;
33786;SDS011;29742;51.540;9.358;2022-09-03T04:26:30;0.40;;;0.20;;
33786;SDS011;29742;51.540;9.358;2022-09-03T04:31:32;1.02;;;0.30;;
33786;SDS011;29742;51.540;9.358;2022-09-03T04:36:33;0.30;;;0.28;;
33786;SDS011;29742;51.540;9.358;2022-09-03T04:41:36;0.65;;;0.45;;
33786;SDS011;29742;51.540;9.358;2022-09-03T04:46:37;0.55;;;0.30;;
33786;SDS011;29742;51.540;9.358;2022-09-03T04:51:39;0.30;;;0.22;;
33786;SDS011;29742;51.540;9.358;2022-09-03T04:56:40;0.57;;;0.32;;
33786;SDS011;29742;51.540;9.358;2022-09-03T05:01:42;0.68;;;0.30;;
33786;SDS011;29742;51.540;9.358;2022-09-03T05:06:43;0.50;;;0.30;;
33786;SDS011;29742;51.540;9.358;2022-09-03T05:11:44;0.73;;;0.50;;
33786;SDS011;29742;51.540;9.358;2022-09-03T05:16:45;0.30;;;0.30;;
33786;SDS011;29742;51.540;9.358;2022-09-03T05:21:46;0.85;;;0.38;;
33786;SDS011;29742;51.540;9.358;2022-09-03T05:26:47;0.40;;;0.30;;
33786;SDS011;29742;51.540;9.358;2022-09-03T05:31:48;0.40;;;0.30;;
33786;SDS011;29742;51.540;9.358;2022-09-03T05:36:49;0.30;;;0.30;;
33786;SDS011;29742;51.540;9.358;2022-09-03T05:41:52;0.77;;;0.20;;
33786;SDS011;29742;51.540;9.358;2022-09-03T05:46:52;1.67;;;0.30;;
33786;SDS011;29742;51.540;9.358;2022-09-03T05:51:54;0.63;;;0.30;;
33786;SDS011;29742;51.540;9.358;2022-09-03T05:56:54;0.30;;;0.30;;
33786;SDS011;29742;51.540;9.358;2022-09-03T06:01:55;0.65;;;0.30;;
33786;SDS011;29742;51.540;9.358;2022-09-03T06:06:57;6.60;;;0.90;;
33786;SDS011;29742;51.540;9.358;2022-09-03T06:11:58;2.05;;;0.63;;
33786;SDS011;29742;51.540;9.358;2022-09-03T06:16:59;1.67;;;0.70;;
33786;SDS011;29742;51.540;9.358;2022-09-03T06:22:00;3.00;;;0.45;;
33786;SDS011;29742;51.540;9.358;2022-09-03T06:27:01;2.85;;;1.00;;
33786;SDS011;29742;51.540;9.358;2022-09-03T06:32:02;1.42;;;0.90;;
33786;SDS011;29742;51.540;9.358;2022-09-03T06:37:03;3.40;;;0.93;;
33786;SDS011;29742;51.540;9.358;2022-09-03T06:42:04;3.83;;;0.90;;
33786;SDS011;29742;51.540;9.358;2022-09-03T06:47:05;5.13;;;0.90;;
33786;SDS011;29742;51.540;9.358;2022-09-03T06:52:06;1.83;;;0.82;;
33786;SDS011;29742;51.540;9.358;2022-09-03T06:57:07;1.63;;;1.05;;
33786;SDS011;29742;51.540;9.358;2022-09-03T07:02:09;2.95;;;0.80;;
33786;SDS011;29742;51.540;9.358;2022-09-03T07:07:10;5.95;;;1.08;;
33786;SDS011;29742;51.540;9.358;2022-09-03T07:12:12;1.52;;;0.90;;
33786;SDS011;29742;51.540;9.358;2022-09-03T07:17:17;2.05;;;0.70;;
33786;SDS011;29742;51.540;9.358;2022-09-03T07:22:18;1.48;;;0.90;;
33786;SDS011;29742;51.540;9.358;2022-09-03T07:27:19;2.08;;;0.80;;
33786;SDS011;29742;51.540;9.358;2022-09-03T07:32:20;3.03;;;1.02;;
33786;SDS011;29742;51.540;9.358;2022-09-03T07:37:21;3.65;;;1.20;;
33786;SDS011;29742;51.540;9.358;2022-09-03T07:42:22;1.38;;;0.80;;
33786;SDS011;29742;51.540;9.358;2022-09-03T07:47:23;0.88;;;0.65;;
33786;SDS011;29742;51.540;9.358;2022-09-03T07:52:25;2.50;;;0.93;;
33786;SDS011;29742;51.540;9.358;2022-09-03T07:57:26;0.80;;;0.80;;
33786;SDS011;29742;51.540;9.358;2022-09-03T08:02:27;1.98;;;1.25;;
33786;SDS011;29742;51.540;9.358;2022-09-03T08:07:28;2.47;;;0.88;;
33786;SDS011;29742;51.540;9.358;2022-09-03T08:12:30;2.65;;;0.90;;
33786;SDS011;29742;51.540;9.358;2022-09-03T08:17:31;1.77;;;0.82;;
33786;SDS011;29742;51.540;9.358;2022-09-03T08:22:33;0.93;;;0.60;;
33786;SDS011;29742;51.540;9.358;2022-09-03T08:27:34;1.67;;;0.70;;
33786;SDS011;29742;51.540;9.358;2022-09-03T08:32:35;1.83;;;1.05;;
33786;SDS011;29742;51.540;9.358;2022-09-03T08:37:36;1.10;;;0.70;;
33786;SDS011;29742;51.540;9.358;2022-09-03T08:42:50;0.90;;;0.68;;
33786;SDS011;29742;51.540;9.358;2022-09-03T08:48:13;1.40;;;0.98;;
33786;SDS011;29742;51.540;9.358;2022-09-03T08:58:17;1.42;;;0.85;;
33786;SDS011;29742;51.540;9.358;2022-09-03T09:03:56;1.83;;;0.75;;
33786;SDS011;29742;51.540;9.358;2022-09-03T09:24:26;0.45;;;0.45;;
33786;SDS011;29742;51.540;9.358;2022-09-03T09:29:32;0.77;;;0.60;;
33786;SDS011;29742;51.540;9.358;2022-09-03T09:34:35;1.23;;;0.68;;
33786;SDS011;29742;51.540;9.358;2022-09-03T09:39:36;1.20;;;0.65;;
33786;SDS011;29742;51.540;9.358;2022-09-03T09:44:37;0.90;;;0.80;;
33786;SDS011;29742;51.540;9.358;2022-09-03T09:49:49;1.35;;;0.68;;
33786;SDS011;29742;51.540;9.358;2022-09-03T09:54:52;0.52;;;0.52;;
33786;SDS011;29742;51.540;9.358;2022-09-03T10:00:04;0.50;;;0.50;;
33786;SDS011;29742;51.540;9.358;2022-09-03T10:05:17;0.60;;;0.45;;
33786;SDS011;29742;51.540;9.358;2022-09-03T10:10:19;1.65;;;0.50;;
33786;SDS011;29742;51.540;9.358;2022-09-03T10:20:35;0.80;;;0.73;;
33786;SDS011;29742;51.540;9.358;2022-09-03T10:25:41;0.60;;;0.50;;
33786;SDS011;29742;51.540;9.358;2022-09-03T10:30:59;1.02;;;0.63;;
33786;SDS011;29742;51.540;9.358;2022-09-03T10:51:15;0.68;;;0.50;;
33786;SDS011;29742;51.540;9.358;2022-09-03T10:56:20;1.80;;;0.88;;
33786;SDS011;29742;51.540;9.358;2022-09-03T11:06:29;1.25;;;0.60;;
33786;SDS011;29742;51.540;9.358;2022-09-03T11:11:35;1.52;;;0.70;;
33786;SDS011;29742;51.540;9.358;2022-09-03T11:16:42;1.42;;;0.95;;
33786;SDS011;29742;51.540;9.358;2022-09-03T11:21:44;0.73;;;0.60;;
33786;SDS011;29742;51.540;9.358;2022-09-03T11:26:49;1.38;;;0.80;;
33786;SDS011;29742;51.540;9.358;2022-09-03T11:42:26;0.90;;;0.60;;
33786;SDS011;29742;51.540;9.358;2022-09-03T11:47:37;0.80;;;0.60;;
33786;SDS011;29742;51.540;9.358;2022-09-03T11:52:39;0.73;;;0.68;;
33786;SDS011;29742;51.540;9.358;2022-09-03T11:57:40;1.33;;;0.88;;
33786;SDS011;29742;51.540;9.358;2022-09-03T12:02:49;0.93;;;0.70;;
33786;SDS011;29742;51.540;9.358;2022-09-03T12:07:57;0.55;;;0.47;;
33786;SDS011;29742;51.540;9.358;2022-09-03T12:18:06;1.48;;;0.68;;
33786;SDS011;29742;51.540;9.358;2022-09-03T12:23:26;2.83;;;0.70;;
33786;SDS011;29742;51.540;9.358;2022-09-03T12:28:27;1.63;;;0.80;;
33786;SDS011;29742;51.540;9.358;2022-09-03T12:33:29;0.50;;;0.40;;
33786;SDS011;29742;51.540;9.358;2022-09-03T12:38:32;2.55;;;0.75;;
33786;SDS011;29742;51.540;9.358;2022-09-03T12:43:33;0.73;;;0.47;;
33786;SDS011;29742;51.540;9.358;2022-09-03T12:48:34;3.33;;;0.73;;
33786;SDS011;29742;51.540;9.358;2022-09-03T12:53:35;1.90;;;0.65;;
33786;SDS011;29742;51.540;9.358;2022-09-03T12:58:49;2.13;;;0.70;;
33786;SDS011;29742;51.540;9.358;2022-09-03T13:04:08;3.40;;;0.90;;
33786;SDS011;29742;51.540;9.358;2022-09-03T13:09:10;1.15;;;0.90;;
33786;SDS011;29742;51.540;9.358;2022-09-03T13:14:11;1.10;;;0.82;;
33786;SDS011;29742;51.540;9.358;2022-09-03T13:35:11;1.58;;;0.70;;
33786;SDS011;29742;51.540;9.358;2022-09-03T13:40:37;0.70;;;0.60;;
33786;SDS011;29742;51.540;9.358;2022-09-03T13:45:40;1.38;;;0.90;;
33786;SDS011;29742;51.540;9.358;2022-09-03T13:50:48;0.90;;;0.60;;
33786;SDS011;29742;51.540;9.358;2022-09-03T13:55:53;2.13;;;1.10;;
33786;SDS011;29742;51.540;9.358;2022-09-03T14:06:10;1.40;;;0.70;;
33786;SDS011;29742;51.540;9.358;2022-09-03T14:26:30;3.65;;;1.20;;
33786;SDS011;29742;51.540;9.358;2022-09-03T14:36:37;0.80;;;0.77;;
33786;SDS011;29742;51.540;9.358;2022-09-03T14:41:48;2.88;;;0.98;;
33786;SDS011;29742;51.540;9.358;2022-09-03T14:46:55;3.00;;;1.30;;
33786;SDS011;29742;51.540;9.358;2022-09-03T15:07:58;3.33;;;1.13;;
33786;SDS011;29742;51.540;9.358;2022-09-03T15:13:07;3.08;;;0.98;;
33786;SDS011;29742;51.540;9.358;2022-09-03T15:28:33;2.58;;;0.98;;
33786;SDS011;29742;51.540;9.358;2022-09-03T15:38:59;1.98;;;0.80;;
33786;SDS011;29742;51.540;9.358;2022-09-03T15:44:00;1.38;;;0.80;;
33786;SDS011;29742;51.540;9.358;2022-09-03T15:49:05;1.27;;;0.75;;
33786;SDS011;29742;51.540;9.358;2022-09-03T15:54:14;1.27;;;0.85;;
33786;SDS011;29742;51.540;9.358;2022-09-03T15:59:18;1.42;;;0.95;;
33786;SDS011;29742;51.540;9.358;2022-09-03T16:04:24;0.80;;;0.70;;
33786;SDS011;29742;51.540;9.358;2022-09-03T16:09:30;0.70;;;0.68;;
33786;SDS011;29742;51.540;9.358;2022-09-03T16:14:55;1.23;;;0.88;;
33786;SDS011;29742;51.540;9.358;2022-09-03T16:20:13;2.80;;;0.90;;
33786;SDS011;29742;51.540;9.358;2022-09-03T16:40:58;8.85;;;2.55;;
33786;SDS011;29742;51.540;9.358;2022-09-03T16:51:06;3.83;;;1.15;;
33786;SDS011;29742;51.540;9.358;2022-09-03T17:06:33;2.08;;;0.90;;
33786;SDS011;29742;51.540;9.358;2022-09-03T17:48:12;6.78;;;2.28;;
33786;SDS011;29742;51.540;9.358;2022-09-03T17:53:20;8.90;;;2.08;;
33786;SDS011;29742;51.540;9.358;2022-09-03T18:03:57;6.60;;;2.40;;
33786;SDS011;29742;51.540;9.358;2022-09-03T18:14:14;8.43;;;1.95;;
33786;SDS011;29742;51.540;9.358;2022-09-03T18:24:29;7.25;;;2.38;;
33786;SDS011;29742;51.540;9.358;2022-09-03T18:40:49;5.25;;;1.67;;
33786;SDS011;29742;51.540;9.358;2022-09-03T18:56:53;4.32;;;1.67;;
33786;SDS011;29742;51.540;9.358;2022-09-03T19:02:17;5.43;;;1.73;;
33786;SDS011;29742;51.540;9.358;2022-09-03T19:13:33;12.90;;;2.70;;
33786;SDS011;29742;51.540;9.358;2022-09-03T19:29:46;8.15;;;2.00;;
33786;SDS011;29742;51.540;9.358;2022-09-03T19:35:16;7.97;;;2.22;;
33786;SDS011;29742;51.540;9.358;2022-09-03T19:40:49;9.15;;;2.28;;
33786;SDS011;29742;51.540;9.358;2022-09-03T19:46:11;6.20;;;1.95;;
33786;SDS011;29742;51.540;9.358;2022-09-03T19:52:22;10.68;;;1.80;;
33786;SDS011;29742;51.540;9.358;2022-09-03T19:57:18;10.18;;;1.85;;
33786;SDS011;29742;51.540;9.358;2022-09-03T20:02:39;5.38;;;2.20;;
33786;SDS011;29742;51.540;9.358;2022-09-03T20:08:00;2.80;;;1.45;;
33786;SDS011;29742;51.540;9.358;2022-09-03T20:13:20;7.28;;;2.30;;
33786;SDS011;29742;51.540;9.358;2022-09-03T20:50:52;12.20;;;2.42;;
33786;SDS011;29742;51.540;9.358;2022-09-03T20:55:43;5.40;;;2.42;;
33786;SDS011;29742;51.540;9.358;2022-09-03T21:10:55;5.93;;;1.60;;
33786;SDS011;29742;51.540;9.358;2022-09-03T21:16:01;6.65;;;2.35;;
33786;SDS011;29742;51.540;9.358;2022-09-03T21:21:10;10.57;;;1.40;;
33786;SDS011;29742;51.540;9.358;2022-09-03T21:26:18;7.50;;;1.50;;
33786;SDS011;29742;51.540;9.358;2022-09-03T21:31:22;3.20;;;1.42;;
33786;SDS011;29742;51.540;9.358;2022-09-03T21:36:26;3.67;;;1.67;;
33786;SDS011;29742;51.540;9.358;2022-09-03T21:41:30;8.40;;;1.38;;
33786;SDS011;29742;51.540;9.358;2022-09-03T21:46:35;4.50;;;1.00;;
33786;SDS011;29742;51.540;9.358;2022-09-03T21:51:40;4.13;;;1.20;;
33786;SDS011;29742;51.540;9.358;2022-09-03T22:12:12;3.00;;;1.33;;
33786;SDS011;29742;51.540;9.358;2022-09-03T22:22:25;2.03;;;1.00;;
33786;SDS011;29742;51.540;9.358;2022-09-03T22:43:16;3.45;;;0.82;;
33786;SDS011;29742;51.540;9.358;2022-09-03T22:58:46;2.55;;;1.10;;
33786;SDS011;29742;51.540;9.358;2022-09-03T23:03:53;4.05;;;0.88;;
33786;SDS011;29742;51.540;9.358;2022-09-03T23:09:32;1.63;;;1.00;;
33786;SDS011;29742;51.540;9.358;2022-09-03T23:14:25;3.63;;;1.58;;
33786;SDS011;29742;51.540;9.358;2022-09-03T23:19:28;2.00;;;1.10;;
33786;SDS011;29742;51.540;9.358;2022-09-03T23:24:43;2.88;;;1.05;;
33786;SDS011;29742;51.540;9.358;2022-09-03T23:29:54;2.90;;;1.25;;
33786;SDS011;29742;51.540;9.358;2022-09-03T23:34:56;3.95;;;1.58;;
33786;SDS011;29742;51.540;9.358;2022-09-03T23:45:09;2.25;;;1.30;;
